Alt de Flamboyan, Puerto Rico
Current Conditions -  °F | °C
As of 3:56 AM on Saturday 01 Nov 2014 (Local Time) from TJSJ Reporting Station
Few Clouds Few Clouds  
Wind Chill: 80°   Ceiling: Unl
Heat Index: 85°   Visibility: 10mi
Dew Point: 76°   Wind: 0mph
Humidity: 87%   Direction: NA
Pressure: 29.91"   Gusts: NA
Location:  18.1781°N, 66.1167°W
Report Text: TJSJ 010756Z 00000KT 10SM FEW033 27/24 A2991 RMK AO2 SLP128 T02670244
Loading
Personal Weather Stations






























Interactive Weather Map
Tropical Storm Tracking
New forecast layout! Learn more

10-Day Weather Forecast

Advertisements
Track Severe Weather on mobile